sensor_id;sensor_type;location;lat;lon;timestamp;P1;durP1;ratioP1;P2;durP2;ratioP2
46036;SDS011;31769;49.304;8.428;2023-06-10T00:02:55;7.85;;;5.53;;
46036;SDS011;31769;49.304;8.428;2023-06-10T00:05:55;7.03;;;5.90;;
46036;SDS011;31769;49.304;8.428;2023-06-10T00:12:05;6.00;;;5.40;;
46036;SDS011;31769;49.304;8.428;2023-06-10T00:15:07;5.80;;;5.30;;
46036;SDS011;31769;49.304;8.428;2023-06-10T00:18:08;5.88;;;5.38;;
46036;SDS011;31769;49.304;8.428;2023-06-10T00:21:10;6.05;;;5.50;;
46036;SDS011;31769;49.304;8.428;2023-06-10T00:24:13;5.68;;;5.28;;
46036;SDS011;31769;49.304;8.428;2023-06-10T00:27:14;6.03;;;5.43;;
46036;SDS011;31769;49.304;8.428;2023-06-10T00:30:14;5.82;;;5.35;;
46036;SDS011;31769;49.304;8.428;2023-06-10T00:33:15;5.45;;;4.97;;
46036;SDS011;31769;49.304;8.428;2023-06-10T00:36:16;7.55;;;6.85;;
46036;SDS011;31769;49.304;8.428;2023-06-10T00:39:16;14.90;;;11.07;;
46036;SDS011;31769;49.304;8.428;2023-06-10T00:42:17;14.10;;;9.70;;
46036;SDS011;31769;49.304;8.428;2023-06-10T00:45:18;8.27;;;7.47;;
46036;SDS011;31769;49.304;8.428;2023-06-10T00:48:18;9.50;;;8.18;;
46036;SDS011;31769;49.304;8.428;2023-06-10T00:51:19;8.40;;;6.78;;
46036;SDS011;31769;49.304;8.428;2023-06-10T00:54:21;6.82;;;6.22;;
46036;SDS011;31769;49.304;8.428;2023-06-10T00:57:22;6.50;;;5.90;;
46036;SDS011;31769;49.304;8.428;2023-06-10T01:00:23;6.30;;;5.70;;
46036;SDS011;31769;49.304;8.428;2023-06-10T01:03:24;6.30;;;5.80;;
46036;SDS011;31769;49.304;8.428;2023-06-10T01:13:00;6.95;;;6.22;;
46036;SDS011;31769;49.304;8.428;2023-06-10T01:16:04;6.47;;;5.55;;
46036;SDS011;31769;49.304;8.428;2023-06-10T01:19:05;6.88;;;6.20;;
46036;SDS011;31769;49.304;8.428;2023-06-10T01:22:06;6.43;;;5.82;;
46036;SDS011;31769;49.304;8.428;2023-06-10T01:25:07;6.60;;;6.00;;
46036;SDS011;31769;49.304;8.428;2023-06-10T01:28:10;7.40;;;6.80;;
46036;SDS011;31769;49.304;8.428;2023-06-10T01:31:36;7.63;;;7.03;;
46036;SDS011;31769;49.304;8.428;2023-06-10T01:34:46;8.25;;;7.22;;
46036;SDS011;31769;49.304;8.428;2023-06-10T01:37:49;9.23;;;8.30;;
46036;SDS011;31769;49.304;8.428;2023-06-10T01:40:53;9.52;;;8.50;;
46036;SDS011;31769;49.304;8.428;2023-06-10T01:43:55;10.35;;;9.00;;
46036;SDS011;31769;49.304;8.428;2023-06-10T01:46:56;10.30;;;9.00;;
46036;SDS011;31769;49.304;8.428;2023-06-10T01:49:57;13.93;;;12.32;;
46036;SDS011;31769;49.304;8.428;2023-06-10T01:52:58;14.02;;;12.63;;
46036;SDS011;31769;49.304;8.428;2023-06-10T01:56:01;12.98;;;10.05;;
46036;SDS011;31769;49.304;8.428;2023-06-10T01:59:02;13.55;;;10.00;;
46036;SDS011;31769;49.304;8.428;2023-06-10T02:02:04;13.88;;;10.63;;
46036;SDS011;31769;49.304;8.428;2023-06-10T02:05:06;12.93;;;10.73;;
46036;SDS011;31769;49.304;8.428;2023-06-10T02:08:07;13.40;;;10.98;;
46036;SDS011;31769;49.304;8.428;2023-06-10T02:11:07;12.10;;;10.75;;
46036;SDS011;31769;49.304;8.428;2023-06-10T02:14:08;12.82;;;10.70;;
46036;SDS011;31769;49.304;8.428;2023-06-10T02:17:09;12.88;;;11.68;;
46036;SDS011;31769;49.304;8.428;2023-06-10T02:20:15;15.25;;;11.88;;
46036;SDS011;31769;49.304;8.428;2023-06-10T02:23:16;17.35;;;12.48;;
46036;SDS011;31769;49.304;8.428;2023-06-10T02:26:17;13.80;;;12.15;;
46036;SDS011;31769;49.304;8.428;2023-06-10T02:29:18;14.95;;;11.65;;
46036;SDS011;31769;49.304;8.428;2023-06-10T02:32:19;13.93;;;12.52;;
46036;SDS011;31769;49.304;8.428;2023-06-10T02:35:19;13.75;;;12.35;;
46036;SDS011;31769;49.304;8.428;2023-06-10T02:38:21;13.82;;;12.55;;
46036;SDS011;31769;49.304;8.428;2023-06-10T02:41:22;15.27;;;13.25;;
46036;SDS011;31769;49.304;8.428;2023-06-10T02:44:26;16.20;;;13.30;;
46036;SDS011;31769;49.304;8.428;2023-06-10T02:47:27;14.50;;;13.20;;
46036;SDS011;31769;49.304;8.428;2023-06-10T02:50:28;15.40;;;12.85;;
46036;SDS011;31769;49.304;8.428;2023-06-10T02:53:43;15.32;;;13.82;;
46036;SDS011;31769;49.304;8.428;2023-06-10T02:56:46;16.38;;;14.23;;
46036;SDS011;31769;49.304;8.428;2023-06-10T03:02:54;15.98;;;13.93;;
46036;SDS011;31769;49.304;8.428;2023-06-10T03:06:01;14.93;;;12.82;;
46036;SDS011;31769;49.304;8.428;2023-06-10T03:09:03;14.35;;;12.95;;
46036;SDS011;31769;49.304;8.428;2023-06-10T03:12:05;15.00;;;12.95;;
46036;SDS011;31769;49.304;8.428;2023-06-10T03:15:12;15.23;;;13.27;;
46036;SDS011;31769;49.304;8.428;2023-06-10T03:18:14;14.95;;;12.57;;
46036;SDS011;31769;49.304;8.428;2023-06-10T03:21:16;14.05;;;12.57;;
46036;SDS011;31769;49.304;8.428;2023-06-10T03:24:17;14.75;;;13.25;;
46036;SDS011;31769;49.304;8.428;2023-06-10T03:27:18;14.60;;;13.02;;
46036;SDS011;31769;49.304;8.428;2023-06-10T03:30:23;14.55;;;12.93;;
46036;SDS011;31769;49.304;8.428;2023-06-10T03:33:24;15.95;;;13.25;;
46036;SDS011;31769;49.304;8.428;2023-06-10T03:36:26;14.77;;;13.15;;
46036;SDS011;31769;49.304;8.428;2023-06-10T03:39:30;14.68;;;13.13;;
46036;SDS011;31769;49.304;8.428;2023-06-10T03:42:33;14.40;;;12.90;;
46036;SDS011;31769;49.304;8.428;2023-06-10T03:45:34;14.43;;;12.93;;
46036;SDS011;31769;49.304;8.428;2023-06-10T03:48:36;14.90;;;12.77;;
46036;SDS011;31769;49.304;8.428;2023-06-10T03:51:39;16.63;;;13.77;;
46036;SDS011;31769;49.304;8.428;2023-06-10T03:54:40;14.82;;;13.25;;
46036;SDS011;31769;49.304;8.428;2023-06-10T03:57:40;14.13;;;12.63;;
46036;SDS011;31769;49.304;8.428;2023-06-10T04:00:41;14.48;;;12.90;;
46036;SDS011;31769;49.304;8.428;2023-06-10T04:03:42;13.95;;;12.57;;
46036;SDS011;31769;49.304;8.428;2023-06-10T04:06:43;14.98;;;13.35;;
46036;SDS011;31769;49.304;8.428;2023-06-10T04:09:44;14.75;;;12.98;;
46036;SDS011;31769;49.304;8.428;2023-06-10T04:12:46;16.67;;;14.23;;
46036;SDS011;31769;49.304;8.428;2023-06-10T04:15:47;16.35;;;13.30;;
46036;SDS011;31769;49.304;8.428;2023-06-10T04:18:51;15.60;;;13.32;;
46036;SDS011;31769;49.304;8.428;2023-06-10T04:21:53;13.75;;;12.35;;
46036;SDS011;31769;49.304;8.428;2023-06-10T04:24:54;14.07;;;12.45;;
46036;SDS011;31769;49.304;8.428;2023-06-10T04:27:55;13.68;;;12.40;;
46036;SDS011;31769;49.304;8.428;2023-06-10T04:30:56;14.50;;;13.00;;
46036;SDS011;31769;49.304;8.428;2023-06-10T04:33:57;14.38;;;12.82;;
46036;SDS011;31769;49.304;8.428;2023-06-10T04:36:59;14.18;;;12.27;;
46036;SDS011;31769;49.304;8.428;2023-06-10T04:40:00;16.88;;;12.25;;
46036;SDS011;31769;49.304;8.428;2023-06-10T04:43:03;14.93;;;12.68;;
46036;SDS011;31769;49.304;8.428;2023-06-10T04:46:05;13.75;;;12.20;;
46036;SDS011;31769;49.304;8.428;2023-06-10T04:49:06;13.02;;;11.57;;
46036;SDS011;31769;49.304;8.428;2023-06-10T04:52:07;14.20;;;11.88;;
46036;SDS011;31769;49.304;8.428;2023-06-10T04:55:12;13.02;;;11.85;;
46036;SDS011;31769;49.304;8.428;2023-06-10T04:58:13;16.58;;;11.32;;
46036;SDS011;31769;49.304;8.428;2023-06-10T05:01:14;15.73;;;12.18;;
46036;SDS011;31769;49.304;8.428;2023-06-10T05:04:14;12.95;;;11.63;;
46036;SDS011;31769;49.304;8.428;2023-06-10T05:07:15;12.93;;;11.50;;
46036;SDS011;31769;49.304;8.428;2023-06-10T05:10:16;13.45;;;12.05;;
46036;SDS011;31769;49.304;8.428;2023-06-10T05:13:38;18.13;;;12.38;;
46036;SDS011;31769;49.304;8.428;2023-06-10T05:16:40;15.27;;;12.50;;
46036;SDS011;31769;49.304;8.428;2023-06-10T05:19:41;14.00;;;12.35;;
46036;SDS011;31769;49.304;8.428;2023-06-10T05:22:43;16.58;;;12.23;;
46036;SDS011;31769;49.304;8.428;2023-06-10T05:25:44;16.60;;;13.10;;
46036;SDS011;31769;49.304;8.428;2023-06-10T05:28:45;14.35;;;12.80;;
46036;SDS011;31769;49.304;8.428;2023-06-10T05:31:46;12.77;;;11.55;;
46036;SDS011;31769;49.304;8.428;2023-06-10T05:34:46;13.60;;;11.85;;
46036;SDS011;31769;49.304;8.428;2023-06-10T05:37:47;17.60;;;12.23;;
46036;SDS011;31769;49.304;8.428;2023-06-10T05:40:48;13.50;;;12.20;;
46036;SDS011;31769;49.304;8.428;2023-06-10T05:43:49;14.13;;;12.68;;
46036;SDS011;31769;49.304;8.428;2023-06-10T05:46:50;15.55;;;12.60;;
46036;SDS011;31769;49.304;8.428;2023-06-10T05:49:51;15.07;;;13.48;;
46036;SDS011;31769;49.304;8.428;2023-06-10T05:52:51;14.15;;;12.70;;
46036;SDS011;31769;49.304;8.428;2023-06-10T05:55:53;14.52;;;13.07;;
46036;SDS011;31769;49.304;8.428;2023-06-10T05:58:57;17.05;;;13.52;;
46036;SDS011;31769;49.304;8.428;2023-06-10T06:01:58;13.75;;;11.45;;
46036;SDS011;31769;49.304;8.428;2023-06-10T06:04:59;14.18;;;12.73;;
46036;SDS011;31769;49.304;8.428;2023-06-10T06:08:00;12.45;;;11.15;;
46036;SDS011;31769;49.304;8.428;2023-06-10T06:11:01;12.70;;;10.93;;
46036;SDS011;31769;49.304;8.428;2023-06-10T06:14:02;13.32;;;12.10;;
46036;SDS011;31769;49.304;8.428;2023-06-10T06:17:03;23.23;;;20.77;;
46036;SDS011;31769;49.304;8.428;2023-06-10T06:20:04;21.67;;;18.60;;
46036;SDS011;31769;49.304;8.428;2023-06-10T06:23:05;14.48;;;10.70;;
46036;SDS011;31769;49.304;8.428;2023-06-10T06:26:08;11.63;;;10.63;;
46036;SDS011;31769;49.304;8.428;2023-06-10T06:29:09;12.43;;;11.07;;
46036;SDS011;31769;49.304;8.428;2023-06-10T06:32:10;11.23;;;9.60;;
46036;SDS011;31769;49.304;8.428;2023-06-10T06:35:10;29.08;;;23.98;;
46036;SDS011;31769;49.304;8.428;2023-06-10T06:38:11;12.40;;;11.13;;
46036;SDS011;31769;49.304;8.428;2023-06-10T06:41:12;11.55;;;10.45;;
46036;SDS011;31769;49.304;8.428;2023-06-10T06:44:13;10.48;;;9.38;;
46036;SDS011;31769;49.304;8.428;2023-06-10T06:47:17;11.35;;;9.00;;
46036;SDS011;31769;49.304;8.428;2023-06-10T06:50:19;9.27;;;8.18;;
46036;SDS011;31769;49.304;8.428;2023-06-10T06:53:20;10.43;;;7.40;;
46036;SDS011;31769;49.304;8.428;2023-06-10T06:56:21;9.38;;;6.63;;
46036;SDS011;31769;49.304;8.428;2023-06-10T06:59:21;7.22;;;6.20;;
46036;SDS011;31769;49.304;8.428;2023-06-10T07:02:22;6.68;;;5.97;;
46036;SDS011;31769;49.304;8.428;2023-06-10T07:05:23;7.53;;;6.05;;
46036;SDS011;31769;49.304;8.428;2023-06-10T07:08:27;11.98;;;6.07;;
46036;SDS011;31769;49.304;8.428;2023-06-10T07:11:28;6.43;;;5.80;;
46036;SDS011;31769;49.304;8.428;2023-06-10T07:14:28;15.90;;;6.35;;
46036;SDS011;31769;49.304;8.428;2023-06-10T07:17:30;9.30;;;5.60;;
46036;SDS011;31769;49.304;8.428;2023-06-10T07:20:30;6.97;;;5.90;;
46036;SDS011;31769;49.304;8.428;2023-06-10T07:23:31;6.40;;;5.85;;
46036;SDS011;31769;49.304;8.428;2023-06-10T07:26:32;6.10;;;5.57;;
46036;SDS011;31769;49.304;8.428;2023-06-10T07:29:32;6.10;;;5.60;;
46036;SDS011;31769;49.304;8.428;2023-06-10T07:32:33;6.20;;;5.60;;
46036;SDS011;31769;49.304;8.428;2023-06-10T07:35:34;7.13;;;5.05;;
46036;SDS011;31769;49.304;8.428;2023-06-10T07:38:35;4.50;;;4.20;;
46036;SDS011;31769;49.304;8.428;2023-06-10T07:41:36;5.40;;;4.90;;
46036;SDS011;31769;49.304;8.428;2023-06-10T07:44:37;4.72;;;4.32;;
46036;SDS011;31769;49.304;8.428;2023-06-10T07:47:38;4.78;;;4.35;;
46036;SDS011;31769;49.304;8.428;2023-06-10T07:50:39;5.43;;;4.93;;
46036;SDS011;31769;49.304;8.428;2023-06-10T07:53:40;6.18;;;5.57;;
46036;SDS011;31769;49.304;8.428;2023-06-10T07:56:41;4.10;;;3.80;;
46036;SDS011;31769;49.304;8.428;2023-06-10T07:59:41;7.13;;;3.58;;
46036;SDS011;31769;49.304;8.428;2023-06-10T08:02:44;3.88;;;3.58;;
46036;SDS011;31769;49.304;8.428;2023-06-10T08:05:45;4.93;;;4.05;;
46036;SDS011;31769;49.304;8.428;2023-06-10T08:08:45;4.07;;;3.83;;
46036;SDS011;31769;49.304;8.428;2023-06-10T08:11:47;5.97;;;5.47;;
46036;SDS011;31769;49.304;8.428;2023-06-10T08:14:48;4.85;;;4.43;;
46036;SDS011;31769;49.304;8.428;2023-06-10T08:17:48;5.45;;;4.78;;
46036;SDS011;31769;49.304;8.428;2023-06-10T08:20:49;4.22;;;3.95;;
46036;SDS011;31769;49.304;8.428;2023-06-10T08:23:52;4.57;;;4.13;;
46036;SDS011;31769;49.304;8.428;2023-06-10T08:26:54;4.38;;;3.97;;
46036;SDS011;31769;49.304;8.428;2023-06-10T08:29:57;4.15;;;3.85;;
46036;SDS011;31769;49.304;8.428;2023-06-10T08:32:59;4.25;;;3.90;;
46036;SDS011;31769;49.304;8.428;2023-06-10T08:36:00;4.68;;;4.28;;
46036;SDS011;31769;49.304;8.428;2023-06-10T08:39:01;4.22;;;3.83;;
46036;SDS011;31769;49.304;8.428;2023-06-10T08:45:12;6.35;;;4.57;;
46036;SDS011;31769;49.304;8.428;2023-06-10T08:48:19;4.50;;;4.10;;
46036;SDS011;31769;49.304;8.428;2023-06-10T08:51:20;4.85;;;3.75;;
46036;SDS011;31769;49.304;8.428;2023-06-10T08:54:25;4.20;;;3.90;;
46036;SDS011;31769;49.304;8.428;2023-06-10T08:57:36;9.60;;;3.72;;
46036;SDS011;31769;49.304;8.428;2023-06-10T09:00:37;4.20;;;3.85;;
46036;SDS011;31769;49.304;8.428;2023-06-10T09:03:38;5.68;;;3.90;;
46036;SDS011;31769;49.304;8.428;2023-06-10T09:06:39;4.13;;;3.83;;
46036;SDS011;31769;49.304;8.428;2023-06-10T09:09:42;4.05;;;3.53;;
46036;SDS011;31769;49.304;8.428;2023-06-10T09:12:43;4.75;;;4.10;;
46036;SDS011;31769;49.304;8.428;2023-06-10T09:15:44;4.47;;;4.07;;
46036;SDS011;31769;49.304;8.428;2023-06-10T09:18:45;4.30;;;3.88;;
46036;SDS011;31769;49.304;8.428;2023-06-10T09:21:50;4.30;;;4.00;;
46036;SDS011;31769;49.304;8.428;2023-06-10T09:25:03;4.78;;;3.80;;
46036;SDS011;31769;49.304;8.428;2023-06-10T09:28:14;5.47;;;4.07;;
46036;SDS011;31769;49.304;8.428;2023-06-10T09:31:16;5.50;;;4.00;;
46036;SDS011;31769;49.304;8.428;2023-06-10T09:34:18;4.97;;;4.13;;
46036;SDS011;31769;49.304;8.428;2023-06-10T09:37:20;6.93;;;4.88;;
46036;SDS011;31769;49.304;8.428;2023-06-10T09:40:24;4.38;;;4.07;;
46036;SDS011;31769;49.304;8.428;2023-06-10T09:43:38;5.28;;;4.18;;
46036;SDS011;31769;49.304;8.428;2023-06-10T09:46:39;5.00;;;4.28;;
46036;SDS011;31769;49.304;8.428;2023-06-10T09:49:40;4.25;;;3.78;;
46036;SDS011;31769;49.304;8.428;2023-06-10T09:52:41;5.72;;;4.03;;
46036;SDS011;31769;49.304;8.428;2023-06-10T09:55:43;3.88;;;3.50;;
46036;SDS011;31769;49.304;8.428;2023-06-10T09:58:45;5.10;;;4.00;;
46036;SDS011;31769;49.304;8.428;2023-06-10T10:01:47;4.53;;;3.83;;
46036;SDS011;31769;49.304;8.428;2023-06-10T10:05:01;4.35;;;3.90;;
46036;SDS011;31769;49.304;8.428;2023-06-10T10:08:04;3.78;;;3.47;;
46036;SDS011;31769;49.304;8.428;2023-06-10T10:11:05;4.15;;;3.85;;
46036;SDS011;31769;49.304;8.428;2023-06-10T10:14:05;4.25;;;3.83;;
46036;SDS011;31769;49.304;8.428;2023-06-10T10:17:07;3.63;;;3.40;;
46036;SDS011;31769;49.304;8.428;2023-06-10T10:20:12;8.63;;;3.80;;
46036;SDS011;31769;49.304;8.428;2023-06-10T10:23:15;4.28;;;3.95;;
46036;SDS011;31769;49.304;8.428;2023-06-10T10:26:21;5.82;;;3.78;;
46036;SDS011;31769;49.304;8.428;2023-06-10T10:29:24;6.60;;;3.70;;
46036;SDS011;31769;49.304;8.428;2023-06-10T10:32:46;4.30;;;3.90;;
46036;SDS011;31769;49.304;8.428;2023-06-10T10:36:23;3.95;;;3.67;;
46036;SDS011;31769;49.304;8.428;2023-06-10T10:39:24;4.28;;;3.88;;
46036;SDS011;31769;49.304;8.428;2023-06-10T10:42:28;4.72;;;4.22;;
46036;SDS011;31769;49.304;8.428;2023-06-10T10:45:30;4.43;;;3.72;;
46036;SDS011;31769;49.304;8.428;2023-06-10T10:48:35;3.92;;;3.22;;
46036;SDS011;31769;49.304;8.428;2023-06-10T10:51:38;4.03;;;3.72;;
46036;SDS011;31769;49.304;8.428;2023-06-10T10:54:55;7.57;;;3.50;;
46036;SDS011;31769;49.304;8.428;2023-06-10T11:01:09;3.67;;;3.40;;
46036;SDS011;31769;49.304;8.428;2023-06-10T11:04:17;3.60;;;3.38;;
46036;SDS011;31769;49.304;8.428;2023-06-10T11:07:21;4.00;;;3.67;;
46036;SDS011;31769;49.304;8.428;2023-06-10T11:10:32;9.50;;;3.75;;
46036;SDS011;31769;49.304;8.428;2023-06-10T11:13:34;4.38;;;3.90;;
46036;SDS011;31769;49.304;8.428;2023-06-10T11:16:42;3.90;;;3.50;;
46036;SDS011;31769;49.304;8.428;2023-06-10T11:19:43;4.85;;;3.90;;
46036;SDS011;31769;49.304;8.428;2023-06-10T11:22:58;4.05;;;3.75;;
46036;SDS011;31769;49.304;8.428;2023-06-10T11:29:22;3.58;;;3.35;;
46036;SDS011;31769;49.304;8.428;2023-06-10T11:32:24;3.65;;;3.25;;
46036;SDS011;31769;49.304;8.428;2023-06-10T11:35:31;4.22;;;3.42;;
46036;SDS011;31769;49.304;8.428;2023-06-10T11:38:33;4.35;;;3.15;;
46036;SDS011;31769;49.304;8.428;2023-06-10T11:41:34;4.57;;;3.30;;
46036;SDS011;31769;49.304;8.428;2023-06-10T11:44:36;4.43;;;3.47;;
46036;SDS011;31769;49.304;8.428;2023-06-10T11:47:37;6.15;;;3.45;;
46036;SDS011;31769;49.304;8.428;2023-06-10T11:50:38;3.53;;;3.20;;
46036;SDS011;31769;49.304;8.428;2023-06-10T11:53:43;4.47;;;3.28;;
46036;SDS011;31769;49.304;8.428;2023-06-10T11:56:47;3.28;;;3.00;;
46036;SDS011;31769;49.304;8.428;2023-06-10T11:59:48;5.85;;;2.58;;
46036;SDS011;31769;49.304;8.428;2023-06-10T12:02:56;2.97;;;2.75;;
46036;SDS011;31769;49.304;8.428;2023-06-10T12:05:59;3.42;;;3.20;;
46036;SDS011;31769;49.304;8.428;2023-06-10T12:09:00;3.35;;;3.10;;
46036;SDS011;31769;49.304;8.428;2023-06-10T12:12:04;5.20;;;2.88;;
46036;SDS011;31769;49.304;8.428;2023-06-10T12:15:07;3.92;;;2.90;;
46036;SDS011;31769;49.304;8.428;2023-06-10T12:18:08;2.88;;;2.67;;
46036;SDS011;31769;49.304;8.428;2023-06-10T12:21:20;3.17;;;2.85;;
46036;SDS011;31769;49.304;8.428;2023-06-10T12:24:24;2.47;;;2.33;;
46036;SDS011;31769;49.304;8.428;2023-06-10T12:27:25;2.85;;;2.65;;
46036;SDS011;31769;49.304;8.428;2023-06-10T12:30:28;2.72;;;2.28;;
46036;SDS011;31769;49.304;8.428;2023-06-10T12:33:29;3.22;;;2.55;;
46036;SDS011;31769;49.304;8.428;2023-06-10T12:36:30;4.90;;;2.63;;
46036;SDS011;31769;49.304;8.428;2023-06-10T12:39:33;2.92;;;2.72;;
46036;SDS011;31769;49.304;8.428;2023-06-10T12:42:37;5.22;;;3.13;;
46036;SDS011;31769;49.304;8.428;2023-06-10T12:45:38;2.45;;;2.35;;
46036;SDS011;31769;49.304;8.428;2023-06-10T12:48:49;3.30;;;3.00;;
46036;SDS011;31769;49.304;8.428;2023-06-10T12:51:54;2.72;;;2.50;;
46036;SDS011;31769;49.304;8.428;2023-06-10T12:54:55;3.13;;;2.88;;
46036;SDS011;31769;49.304;8.428;2023-06-10T12:57:56;2.63;;;2.42;;
46036;SDS011;31769;49.304;8.428;2023-06-10T13:00:57;2.60;;;2.40;;
46036;SDS011;31769;49.304;8.428;2023-06-10T13:03:59;3.15;;;2.20;;
46036;SDS011;31769;49.304;8.428;2023-06-10T13:07:00;2.58;;;2.05;;
46036;SDS011;31769;49.304;8.428;2023-06-10T13:10:01;2.10;;;2.00;;
46036;SDS011;31769;49.304;8.428;2023-06-10T13:13:02;4.78;;;4.38;;
46036;SDS011;31769;49.304;8.428;2023-06-10T13:16:05;8.27;;;7.57;;
46036;SDS011;31769;49.304;8.428;2023-06-10T13:19:07;1.90;;;1.80;;
46036;SDS011;31769;49.304;8.428;2023-06-10T13:22:07;2.17;;;1.70;;
46036;SDS011;31769;49.304;8.428;2023-06-10T13:25:08;4.95;;;2.30;;
46036;SDS011;31769;49.304;8.428;2023-06-10T13:28:10;2.10;;;1.23;;
46036;SDS011;31769;49.304;8.428;2023-06-10T13:31:11;1.50;;;1.17;;
46036;SDS011;31769;49.304;8.428;2023-06-10T13:34:12;2.45;;;1.15;;
46036;SDS011;31769;49.304;8.428;2023-06-10T13:37:13;2.30;;;2.10;;
46036;SDS011;31769;49.304;8.428;2023-06-10T13:40:14;12.60;;;1.20;;
46036;SDS011;31769;49.304;8.428;2023-06-10T13:43:15;1.23;;;0.60;;
46036;SDS011;31769;49.304;8.428;2023-06-10T13:46:16;1.10;;;1.10;;
46036;SDS011;31769;49.304;8.428;2023-06-10T13:49:16;1.27;;;1.10;;
46036;SDS011;31769;49.304;8.428;2023-06-10T13:52:17;1.90;;;1.50;;
46036;SDS011;31769;49.304;8.428;2023-06-10T13:55:18;1.65;;;1.33;;
46036;SDS011;31769;49.304;8.428;2023-06-10T13:58:20;2.40;;;1.40;;
46036;SDS011;31769;49.304;8.428;2023-06-10T14:01:20;1.40;;;1.30;;
46036;SDS011;31769;49.304;8.428;2023-06-10T14:04:21;1.40;;;1.30;;
46036;SDS011;31769;49.304;8.428;2023-06-10T14:07:22;1.95;;;1.70;;
46036;SDS011;31769;49.304;8.428;2023-06-10T14:10:23;0.80;;;0.80;;
46036;SDS011;31769;49.304;8.428;2023-06-10T14:13:24;1.35;;;0.80;;
46036;SDS011;31769;49.304;8.428;2023-06-10T14:16:25;1.55;;;0.80;;
46036;SDS011;31769;49.304;8.428;2023-06-10T14:19:25;1.75;;;0.80;;
46036;SDS011;31769;49.304;8.428;2023-06-10T14:22:26;0.63;;;0.60;;
46036;SDS011;31769;49.304;8.428;2023-06-10T14:25:27;1.05;;;0.63;;
46036;SDS011;31769;49.304;8.428;2023-06-10T14:28:28;1.50;;;0.57;;
46036;SDS011;31769;49.304;8.428;2023-06-10T14:31:29;1.55;;;0.40;;
46036;SDS011;31769;49.304;8.428;2023-06-10T14:34:30;2.45;;;0.50;;
46036;SDS011;31769;49.304;8.428;2023-06-10T14:37:33;1.23;;;0.55;;
46036;SDS011;31769;49.304;8.428;2023-06-10T14:40:34;2.00;;;0.50;;
46036;SDS011;31769;49.304;8.428;2023-06-10T14:43:35;0.60;;;0.60;;
46036;SDS011;31769;49.304;8.428;2023-06-10T14:46:36;0.50;;;0.40;;
46036;SDS011;31769;49.304;8.428;2023-06-10T14:49:36;1.97;;;0.53;;
46036;SDS011;31769;49.304;8.428;2023-06-10T14:52:37;1.60;;;0.70;;
46036;SDS011;31769;49.304;8.428;2023-06-10T14:55:38;1.30;;;0.60;;
46036;SDS011;31769;49.304;8.428;2023-06-10T14:58:39;1.55;;;0.55;;
46036;SDS011;31769;49.304;8.428;2023-06-10T15:01:40;2.40;;;0.50;;
46036;SDS011;31769;49.304;8.428;2023-06-10T15:04:40;1.50;;;0.60;;
46036;SDS011;31769;49.304;8.428;2023-06-10T15:07:41;5.20;;;4.80;;
46036;SDS011;31769;49.304;8.428;2023-06-10T15:10:43;1.13;;;1.02;;
46036;SDS011;31769;49.304;8.428;2023-06-10T15:13:43;1.87;;;0.50;;
46036;SDS011;31769;49.304;8.428;2023-06-10T15:16:44;0.60;;;0.50;;
46036;SDS011;31769;49.304;8.428;2023-06-10T15:19:45;1.07;;;0.60;;
46036;SDS011;31769;49.304;8.428;2023-06-10T15:22:45;1.20;;;1.20;;
46036;SDS011;31769;49.304;8.428;2023-06-10T15:25:46;2.10;;;0.80;;
46036;SDS011;31769;49.304;8.428;2023-06-10T15:28:47;0.60;;;0.60;;
46036;SDS011;31769;49.304;8.428;2023-06-10T15:31:47;0.87;;;0.63;;
46036;SDS011;31769;49.304;8.428;2023-06-10T15:34:48;2.33;;;0.87;;
46036;SDS011;31769;49.304;8.428;2023-06-10T15:37:51;0.50;;;0.47;;
46036;SDS011;31769;49.304;8.428;2023-06-10T15:40:52;0.50;;;0.50;;
46036;SDS011;31769;49.304;8.428;2023-06-10T15:43:53;0.60;;;0.60;;
46036;SDS011;31769;49.304;8.428;2023-06-10T15:46:55;0.50;;;0.50;;
46036;SDS011;31769;49.304;8.428;2023-06-10T15:49:55;0.73;;;0.70;;
46036;SDS011;31769;49.304;8.428;2023-06-10T15:52:56;2.55;;;0.80;;
46036;SDS011;31769;49.304;8.428;2023-06-10T15:55:57;2.72;;;0.63;;
46036;SDS011;31769;49.304;8.428;2023-06-10T15:58:57;1.52;;;0.73;;
46036;SDS011;31769;49.304;8.428;2023-06-10T16:01:58;1.00;;;0.60;;
46036;SDS011;31769;49.304;8.428;2023-06-10T16:04:59;1.92;;;0.80;;
46036;SDS011;31769;49.304;8.428;2023-06-10T16:07:59;0.80;;;0.68;;
46036;SDS011;31769;49.304;8.428;2023-06-10T16:11:00;0.68;;;0.68;;
46036;SDS011;31769;49.304;8.428;2023-06-10T16:14:01;1.05;;;0.70;;
46036;SDS011;31769;49.304;8.428;2023-06-10T16:17:02;1.73;;;0.70;;
46036;SDS011;31769;49.304;8.428;2023-06-10T16:20:04;1.35;;;0.77;;
46036;SDS011;31769;49.304;8.428;2023-06-10T16:23:05;3.40;;;0.80;;
46036;SDS011;31769;49.304;8.428;2023-06-10T16:26:06;0.90;;;0.68;;
46036;SDS011;31769;49.304;8.428;2023-06-10T16:29:06;2.10;;;0.80;;
46036;SDS011;31769;49.304;8.428;2023-06-10T16:32:07;1.63;;;1.48;;
46036;SDS011;31769;49.304;8.428;2023-06-10T16:35:08;0.80;;;0.77;;
46036;SDS011;31769;49.304;8.428;2023-06-10T16:38:09;2.28;;;1.20;;
46036;SDS011;31769;49.304;8.428;2023-06-10T16:41:09;0.85;;;0.80;;
46036;SDS011;31769;49.304;8.428;2023-06-10T16:44:10;1.92;;;0.90;;
46036;SDS011;31769;49.304;8.428;2023-06-10T16:47:11;0.93;;;0.80;;
46036;SDS011;31769;49.304;8.428;2023-06-10T16:50:12;2.90;;;1.00;;
46036;SDS011;31769;49.304;8.428;2023-06-10T16:53:12;2.38;;;1.00;;
46036;SDS011;31769;49.304;8.428;2023-06-10T16:56:13;2.70;;;1.20;;
46036;SDS011;31769;49.304;8.428;2023-06-10T16:59:14;1.77;;;1.35;;
46036;SDS011;31769;49.304;8.428;2023-06-10T17:02:15;3.03;;;1.65;;
46036;SDS011;31769;49.304;8.428;2023-06-10T17:05:16;2.10;;;1.15;;
46036;SDS011;31769;49.304;8.428;2023-06-10T17:08:16;3.47;;;1.40;;
46036;SDS011;31769;49.304;8.428;2023-06-10T17:11:17;1.15;;;1.10;;
46036;SDS011;31769;49.304;8.428;2023-06-10T17:14:18;1.95;;;1.17;;
46036;SDS011;31769;49.304;8.428;2023-06-10T17:17:18;2.00;;;1.30;;
46036;SDS011;31769;49.304;8.428;2023-06-10T17:20:19;1.48;;;1.10;;
46036;SDS011;31769;49.304;8.428;2023-06-10T17:23:20;1.00;;;1.00;;
46036;SDS011;31769;49.304;8.428;2023-06-10T17:26:21;2.03;;;1.30;;
46036;SDS011;31769;49.304;8.428;2023-06-10T17:29:22;1.80;;;1.70;;
46036;SDS011;31769;49.304;8.428;2023-06-10T17:32:23;1.63;;;1.17;;
46036;SDS011;31769;49.304;8.428;2023-06-10T17:35:24;2.08;;;1.40;;
46036;SDS011;31769;49.304;8.428;2023-06-10T17:38:25;1.70;;;1.30;;
46036;SDS011;31769;49.304;8.428;2023-06-10T17:41:25;1.67;;;1.40;;
46036;SDS011;31769;49.304;8.428;2023-06-10T17:44:26;1.27;;;1.17;;
46036;SDS011;31769;49.304;8.428;2023-06-10T17:47:28;2.40;;;1.77;;
46036;SDS011;31769;49.304;8.428;2023-06-10T17:50:29;1.75;;;1.40;;
46036;SDS011;31769;49.304;8.428;2023-06-10T17:53:30;1.52;;;1.40;;
46036;SDS011;31769;49.304;8.428;2023-06-10T17:56:30;2.08;;;1.65;;
46036;SDS011;31769;49.304;8.428;2023-06-10T17:59:31;2.08;;;1.90;;
46036;SDS011;31769;49.304;8.428;2023-06-10T18:02:32;2.13;;;1.90;;
46036;SDS011;31769;49.304;8.428;2023-06-10T18:05:33;3.50;;;2.00;;
46036;SDS011;31769;49.304;8.428;2023-06-10T18:08:34;2.85;;;2.05;;
46036;SDS011;31769;49.304;8.428;2023-06-10T18:11:35;2.42;;;2.22;;
46036;SDS011;31769;49.304;8.428;2023-06-10T18:14:36;2.15;;;2.00;;
46036;SDS011;31769;49.304;8.428;2023-06-10T18:17:36;2.70;;;1.90;;
46036;SDS011;31769;49.304;8.428;2023-06-10T18:20:37;7.00;;;2.53;;
46036;SDS011;31769;49.304;8.428;2023-06-10T18:23:38;3.88;;;1.98;;
46036;SDS011;31769;49.304;8.428;2023-06-10T18:26:38;2.72;;;2.53;;
46036;SDS011;31769;49.304;8.428;2023-06-10T18:29:39;2.60;;;2.40;;
46036;SDS011;31769;49.304;8.428;2023-06-10T18:32:40;2.80;;;2.42;;